createdAt,value
2023-06-15T00:00:59.218Z,6.75
2023-06-15T00:04:03.849Z,7.40
2023-06-15T00:07:07.221Z,7.32
2023-06-15T00:10:11.585Z,7.57
2023-06-15T00:13:16.231Z,7.05
2023-06-15T00:16:19.969Z,7.00
2023-06-15T00:19:23.232Z,7.87
2023-06-15T00:22:27.613Z,6.87
2023-06-15T00:25:31.764Z,6.87
2023-06-15T00:28:35.227Z,7.43
2023-06-15T00:31:38.291Z,6.90
2023-06-15T00:34:41.764Z,7.23
2023-06-15T00:37:44.990Z,6.97
2023-06-15T00:40:49.596Z,6.93
2023-06-15T00:43:54.165Z,6.87
2023-06-15T00:47:00.864Z,7.20
2023-06-15T00:50:04.183Z,7.32
2023-06-15T00:53:07.987Z,7.45
2023-06-15T00:56:12.327Z,7.87
2023-06-15T00:59:15.775Z,7.57
2023-06-15T01:02:19.362Z,7.30
2023-06-15T01:05:25.886Z,7.95
2023-06-15T01:08:30.366Z,8.07
2023-06-15T01:11:34.677Z,7.55
2023-06-15T01:14:37.884Z,7.25
2023-06-15T01:17:47.670Z,7.18
2023-06-15T01:20:55.216Z,8.03
2023-06-15T01:24:21.821Z,6.43
2023-06-15T01:27:25.995Z,7.35
2023-06-15T01:30:34.557Z,7.45
2023-06-15T01:33:51.958Z,7.63
2023-06-15T01:36:56.403Z,7.82
2023-06-15T01:40:02.702Z,7.72
2023-06-15T01:43:12.907Z,7.82
2023-06-15T01:46:16.476Z,8.13
2023-06-15T01:49:20.901Z,8.55
2023-06-15T01:52:24.809Z,9.65
2023-06-15T01:55:28.265Z,9.30
2023-06-15T01:58:31.442Z,8.57
2023-06-15T02:01:34.924Z,8.73
2023-06-15T02:04:38.918Z,9.82
2023-06-15T02:07:42.075Z,9.00
2023-06-15T02:10:45.514Z,8.93
2023-06-15T02:13:50.727Z,8.95
2023-06-15T02:16:54.076Z,9.15
2023-06-15T02:19:57.758Z,9.38
2023-06-15T02:23:01.281Z,8.93
2023-06-15T02:26:07.288Z,9.27
2023-06-15T02:29:11.254Z,9.65
2023-06-15T02:32:33.266Z,9.70
2023-06-15T02:35:36.971Z,9.00
2023-06-15T02:38:40.021Z,9.65
2023-06-15T02:41:43.439Z,9.88
2023-06-15T02:44:47.598Z,9.38
2023-06-15T02:47:51.247Z,10.33
2023-06-15T02:50:54.528Z,9.73
2023-06-15T02:53:58.017Z,9.63
2023-06-15T02:57:02.431Z,9.82
2023-06-15T03:00:10.336Z,9.20
2023-06-15T03:03:14.831Z,8.57
2023-06-15T03:06:20.185Z,9.27
2023-06-15T03:09:24.324Z,8.93
2023-06-15T03:12:27.640Z,8.13
2023-06-15T03:15:31.505Z,8.18
2023-06-15T03:18:35.071Z,9.32
2023-06-15T03:21:39.251Z,9.15
2023-06-15T03:24:45.800Z,8.93
2023-06-15T03:27:50.287Z,7.97
2023-06-15T03:30:54.715Z,8.55
2023-06-15T03:33:59.500Z,9.20
2023-06-15T03:37:04.519Z,9.47
2023-06-15T03:40:10.117Z,9.23
2023-06-15T03:43:15.774Z,9.43
2023-06-15T03:46:19.658Z,10.15
2023-06-15T03:49:23.633Z,10.70
2023-06-15T03:52:27.264Z,10.13
2023-06-15T03:55:31.264Z,10.63
2023-06-15T03:58:34.422Z,10.23
2023-06-15T04:01:38.771Z,9.70
2023-06-15T04:04:42.208Z,8.98
2023-06-15T04:07:47.293Z,8.38
2023-06-15T04:10:50.808Z,7.53
2023-06-15T04:13:53.978Z,7.32
2023-06-15T04:16:58.496Z,7.40
2023-06-15T04:20:02.471Z,6.60
2023-06-15T04:23:07.381Z,6.18
2023-06-15T04:26:11.206Z,5.65
2023-06-15T04:29:15.774Z,5.32
2023-06-15T04:32:18.963Z,5.10
2023-06-15T04:35:22.540Z,4.72
2023-06-15T04:38:26.805Z,4.85
2023-06-15T04:41:31.793Z,4.47
2023-06-15T04:44:35.173Z,4.25
2023-06-15T04:47:40.866Z,4.47
2023-06-15T04:50:49.366Z,4.50
2023-06-15T04:53:57.465Z,3.58
2023-06-15T04:57:00.482Z,4.22
2023-06-15T05:00:11.178Z,4.12
2023-06-15T05:03:15.093Z,4.40
2023-06-15T05:06:19.130Z,4.20
2023-06-15T05:09:22.965Z,4.53
2023-06-15T05:12:28.036Z,4.37
2023-06-15T05:15:31.789Z,4.00
2023-06-15T05:18:39.827Z,4.03
2023-06-15T05:21:42.938Z,3.80
2023-06-15T05:24:47.174Z,4.43
2023-06-15T05:27:50.872Z,4.25
2023-06-15T05:30:54.404Z,4.15
2023-06-15T05:33:57.440Z,4.67
2023-06-15T05:37:01.073Z,3.80
2023-06-15T05:40:06.259Z,3.95
2023-06-15T05:43:10.296Z,4.03
2023-06-15T05:46:13.466Z,4.03
2023-06-15T05:49:16.907Z,3.80
2023-06-15T05:52:20.802Z,3.73
2023-06-15T05:55:26.205Z,3.75
2023-06-15T05:58:29.718Z,3.90
2023-06-15T06:01:33.263Z,4.07
2023-06-15T06:04:37.356Z,3.90
2023-06-15T06:07:40.494Z,3.70
2023-06-15T06:10:44.612Z,3.35
2023-06-15T06:13:50.359Z,3.35
2023-06-15T06:16:55.586Z,3.85
2023-06-15T06:19:58.685Z,3.77
2023-06-15T06:23:04.609Z,3.33
2023-06-15T06:26:08.366Z,3.20
2023-06-15T06:29:12.564Z,3.42
2023-06-15T06:32:15.936Z,3.72
2023-06-15T06:35:19.880Z,3.50
2023-06-15T06:38:23.081Z,3.50
2023-06-15T06:41:27.210Z,3.37
2023-06-15T06:44:30.268Z,3.58
2023-06-15T06:47:33.648Z,3.50
2023-06-15T06:50:36.818Z,3.00
2023-06-15T06:53:40.245Z,4.03
2023-06-15T06:56:43.430Z,3.35
2023-06-15T06:59:46.672Z,3.30
2023-06-15T07:02:49.759Z,3.17
2023-06-15T07:05:54.581Z,3.30
2023-06-15T07:08:57.643Z,3.57
2023-06-15T07:12:02.069Z,3.37
2023-06-15T07:15:05.988Z,3.40
2023-06-15T07:18:09.770Z,3.55
2023-06-15T07:21:13.030Z,3.13
2023-06-15T07:24:17.018Z,3.63
2023-06-15T07:27:20.230Z,3.50
2023-06-15T07:30:23.899Z,3.50
2023-06-15T07:33:26.939Z,4.07
2023-06-15T07:36:30.261Z,3.67
2023-06-15T07:39:33.742Z,3.50
2023-06-15T07:42:37.146Z,3.22
2023-06-15T07:45:40.304Z,3.30
2023-06-15T07:48:43.702Z,3.20
2023-06-15T07:52:10.532Z,3.30
2023-06-15T07:55:17.385Z,5.70
2023-06-15T07:58:20.703Z,3.62
2023-06-15T08:01:24.267Z,3.17
2023-06-15T08:04:27.867Z,3.67
2023-06-15T08:07:31.883Z,3.50
2023-06-15T08:10:35.404Z,3.60
2023-06-15T08:13:42.977Z,3.25
2023-06-15T08:16:46.585Z,3.10
2023-06-15T08:19:49.686Z,3.30
2023-06-15T08:22:53.211Z,3.00
2023-06-15T08:25:56.324Z,3.00
2023-06-15T08:29:06.821Z,3.08
2023-06-15T08:32:22.842Z,3.15
2023-06-15T08:35:26.352Z,3.62
2023-06-15T08:38:29.446Z,3.53
2023-06-15T08:41:34.182Z,3.50
2023-06-15T08:44:38.276Z,4.10
2023-06-15T08:47:42.262Z,3.30
2023-06-15T08:50:47.168Z,3.12
2023-06-15T08:53:53.773Z,3.00
2023-06-15T08:56:57.132Z,3.20
2023-06-15T09:00:00.912Z,3.33
2023-06-15T09:03:07.823Z,3.53
2023-06-15T09:06:11.555Z,3.10
2023-06-15T09:09:14.845Z,3.60
2023-06-15T09:12:21.263Z,3.10
2023-06-15T09:15:26.948Z,3.20
2023-06-15T09:18:30.600Z,2.97
2023-06-15T09:21:33.656Z,3.35
2023-06-15T09:24:41.246Z,3.33
2023-06-15T09:27:55.483Z,3.90
2023-06-15T09:31:00.697Z,9.00
2023-06-15T09:34:06.243Z,3.17
2023-06-15T09:37:17.512Z,2.92
2023-06-15T09:40:21.319Z,3.00
2023-06-15T09:43:24.964Z,3.20
2023-06-15T09:46:31.518Z,3.15
2023-06-15T09:49:34.912Z,3.15
2023-06-15T09:52:43.503Z,3.00
2023-06-15T09:55:47.692Z,2.90
2023-06-15T09:58:51.084Z,3.27
2023-06-15T10:01:57.187Z,3.28
2023-06-15T10:05:01.954Z,3.10
2023-06-15T10:08:06.678Z,3.10
2023-06-15T10:11:11.266Z,2.90
2023-06-15T10:14:24.777Z,3.20
2023-06-15T10:17:36.012Z,3.20
2023-06-15T10:20:39.350Z,10.50
2023-06-15T10:23:44.496Z,3.08
2023-06-15T10:26:47.800Z,3.37
2023-06-15T10:30:12.818Z,3.40
2023-06-15T10:33:34.837Z,3.00
2023-06-15T10:36:48.605Z,2.80
2023-06-15T10:39:53.930Z,3.70
2023-06-15T10:42:59.435Z,3.83
2023-06-15T10:46:03.777Z,3.03
2023-06-15T10:49:10.878Z,3.20
2023-06-15T10:52:14.805Z,2.97
2023-06-15T10:55:23.818Z,2.55
2023-06-15T10:58:29.433Z,2.90
2023-06-15T11:01:33.916Z,2.40
2023-06-15T11:04:37.177Z,2.87
2023-06-15T11:07:47.500Z,2.90
2023-06-15T11:10:51.206Z,2.80
2023-06-15T11:14:06.325Z,2.50
2023-06-15T11:17:10.281Z,2.67
2023-06-15T11:20:48.430Z,2.35
2023-06-15T11:23:57.610Z,2.65
2023-06-15T11:27:11.343Z,2.40
2023-06-15T11:30:15.926Z,2.40
2023-06-15T11:33:28.416Z,2.30
2023-06-15T11:36:32.863Z,2.50
2023-06-15T11:39:36.752Z,2.20
2023-06-15T11:42:39.927Z,2.78
2023-06-15T11:45:47.825Z,2.30
2023-06-15T11:48:56.810Z,2.60
2023-06-15T11:52:01.218Z,2.70
2023-06-15T11:55:12.007Z,2.92
2023-06-15T11:58:16.505Z,2.70
2023-06-15T12:01:20.046Z,2.63
2023-06-15T12:04:24.132Z,2.50
2023-06-15T12:07:36.440Z,2.78
2023-06-15T12:10:43.894Z,2.50
2023-06-15T12:13:46.955Z,2.50
2023-06-15T12:16:52.516Z,2.70
2023-06-15T12:20:00.902Z,2.53
2023-06-15T12:23:06.193Z,2.62
2023-06-15T12:26:09.339Z,2.60
2023-06-15T12:29:16.105Z,2.80
2023-06-15T12:32:25.843Z,2.80
2023-06-15T12:35:39.614Z,2.77
2023-06-15T12:38:44.397Z,3.17
2023-06-15T12:41:47.925Z,2.58
2023-06-15T12:44:50.995Z,2.83
2023-06-15T12:47:54.996Z,2.30
2023-06-15T12:50:59.660Z,3.00
2023-06-15T12:54:07.029Z,2.50
2023-06-15T12:57:10.156Z,2.80
2023-06-15T13:00:14.625Z,2.72
2023-06-15T13:03:18.007Z,2.30
2023-06-15T13:06:21.874Z,2.53
2023-06-15T13:09:26.067Z,2.70
2023-06-15T13:12:29.567Z,2.90
2023-06-15T13:15:33.426Z,2.78
2023-06-15T13:18:36.966Z,4.97
2023-06-15T13:21:40.132Z,2.40
2023-06-15T13:24:43.533Z,2.42
2023-06-15T13:27:46.965Z,2.83
2023-06-15T13:30:51.418Z,2.50
2023-06-15T13:33:54.575Z,2.77
2023-06-15T13:36:58.040Z,2.50
2023-06-15T13:40:02.302Z,2.55
2023-06-15T13:43:06.937Z,2.53
2023-06-15T13:46:10.197Z,2.80
2023-06-15T13:49:13.614Z,3.00
2023-06-15T13:52:17.592Z,2.60
2023-06-15T13:55:21.066Z,2.25
2023-06-15T13:58:25.553Z,2.75
2023-06-15T14:01:32.301Z,2.50
2023-06-15T14:04:36.864Z,2.60
2023-06-15T14:07:40.423Z,2.77
2023-06-15T14:10:43.953Z,2.70
2023-06-15T14:13:53.166Z,2.62
2023-06-15T14:16:56.814Z,2.60
2023-06-15T14:20:00.560Z,2.60
2023-06-15T14:23:04.100Z,2.70
2023-06-15T14:26:07.208Z,2.90
2023-06-15T14:29:16.305Z,2.90
2023-06-15T14:32:19.882Z,2.67
2023-06-15T14:35:23.464Z,2.70
2023-06-15T14:38:26.483Z,3.23
2023-06-15T14:41:30.122Z,3.20
2023-06-15T14:44:33.367Z,3.03
2023-06-15T14:47:37.960Z,3.37
2023-06-15T14:50:42.326Z,2.60
2023-06-15T14:53:47.049Z,2.90
2023-06-15T14:56:50.622Z,3.08
2023-06-15T14:59:54.027Z,2.97
2023-06-15T15:02:57.315Z,2.65
2023-06-15T15:06:00.850Z,3.37
2023-06-15T15:09:04.123Z,2.93
2023-06-15T15:12:09.401Z,3.00
2023-06-15T15:15:12.649Z,2.80
2023-06-15T15:18:16.789Z,2.90
2023-06-15T15:21:20.131Z,3.00
2023-06-15T15:24:23.668Z,2.87
2023-06-15T15:27:27.052Z,3.03
2023-06-15T15:30:30.455Z,3.20
2023-06-15T15:33:33.625Z,3.10
2023-06-15T15:36:37.262Z,5.93
2023-06-15T15:39:40.679Z,2.90
2023-06-15T15:42:44.065Z,4.65
2023-06-15T15:45:47.220Z,3.90
2023-06-15T15:48:50.722Z,2.95
2023-06-15T15:51:53.981Z,3.00
2023-06-15T15:54:57.575Z,3.20
2023-06-15T15:58:00.831Z,3.15
2023-06-15T16:01:04.716Z,3.42
2023-06-15T16:04:08.178Z,2.78
2023-06-15T16:07:11.494Z,2.93
2023-06-15T16:10:15.486Z,2.80
2023-06-15T16:13:18.865Z,2.75
2023-06-15T16:16:28.612Z,3.10
2023-06-15T16:19:32.515Z,2.78
2023-06-15T16:22:36.370Z,3.07
2023-06-15T16:25:39.572Z,3.03
2023-06-15T16:28:43.038Z,2.90
2023-06-15T16:31:46.180Z,2.90
2023-06-15T16:34:49.610Z,3.33
2023-06-15T16:37:52.776Z,4.10
2023-06-15T16:40:56.811Z,3.10
2023-06-15T16:44:00.088Z,4.10
2023-06-15T16:47:04.602Z,2.87
2023-06-15T16:50:07.956Z,2.70
2023-06-15T16:53:13.729Z,3.00
2023-06-15T16:56:17.184Z,2.93
2023-06-15T16:59:20.810Z,4.15
2023-06-15T17:02:23.951Z,5.28
2023-06-15T17:05:27.500Z,3.60
2023-06-15T17:08:30.578Z,2.90
2023-06-15T17:11:34.210Z,2.60
2023-06-15T17:14:38.944Z,2.80
2023-06-15T17:17:43.229Z,2.75
2023-06-15T17:20:46.379Z,2.87
2023-06-15T17:23:51.066Z,2.73
2023-06-15T17:26:54.332Z,3.10
2023-06-15T17:29:57.818Z,2.90
2023-06-15T17:33:00.964Z,3.20
2023-06-15T17:36:04.541Z,3.10
2023-06-15T17:39:07.686Z,2.80
2023-06-15T17:42:13.202Z,6.90
2023-06-15T17:45:16.365Z,2.87
2023-06-15T17:48:21.869Z,3.17
2023-06-15T17:51:25.210Z,3.40
2023-06-15T17:54:28.676Z,3.30
2023-06-15T17:57:32.365Z,3.10
2023-06-15T18:00:36.687Z,2.95
2023-06-15T18:03:41.132Z,3.15
2023-06-15T18:06:45.478Z,3.40
2023-06-15T18:09:48.782Z,3.10
2023-06-15T18:12:51.841Z,3.40
2023-06-15T18:15:57.672Z,3.80
2023-06-15T18:19:00.747Z,3.53
2023-06-15T18:22:04.538Z,3.40
2023-06-15T18:25:08.178Z,3.50
2023-06-15T18:28:11.569Z,3.50
2023-06-15T18:31:14.626Z,3.60
2023-06-15T18:34:18.331Z,4.20
2023-06-15T18:37:22.731Z,4.30
2023-06-15T18:40:28.123Z,3.67
2023-06-15T18:43:31.438Z,4.10
2023-06-15T18:46:37.775Z,4.65
2023-06-15T18:49:41.884Z,20.27
2023-06-15T18:52:46.745Z,13.57
2023-06-15T18:55:51.286Z,7.90
2023-06-15T18:58:56.245Z,6.03
2023-06-15T19:02:02.171Z,6.90
2023-06-15T19:05:06.973Z,12.60
2023-06-15T19:08:12.306Z,16.33
2023-06-15T19:11:17.390Z,16.13
2023-06-15T19:14:21.286Z,10.67
2023-06-15T19:17:27.705Z,8.77
2023-06-15T19:20:31.830Z,7.80
2023-06-15T19:23:36.669Z,8.13
2023-06-15T19:26:40.875Z,7.93
2023-06-15T19:29:45.810Z,7.97
2023-06-15T19:32:50.591Z,9.23
2023-06-15T19:35:54.956Z,9.13
2023-06-15T19:39:02.860Z,11.30
2023-06-15T19:42:07.593Z,10.73
2023-06-15T19:45:12.364Z,9.87
2023-06-15T19:48:16.753Z,9.00
2023-06-15T19:51:20.884Z,6.43
2023-06-15T19:54:24.711Z,6.28
2023-06-15T19:57:27.839Z,5.13
2023-06-15T20:00:32.457Z,5.50
2023-06-15T20:03:37.317Z,5.12
2023-06-15T20:06:40.972Z,6.30
2023-06-15T20:09:44.328Z,6.25
2023-06-15T20:12:48.109Z,6.13
2023-06-15T20:15:52.921Z,6.20
2023-06-15T20:18:57.621Z,6.18
2023-06-15T20:22:01.410Z,5.62
2023-06-15T20:25:05.364Z,5.70
2023-06-15T20:28:08.647Z,6.63
2023-06-15T20:31:12.190Z,5.60
2023-06-15T20:34:16.508Z,5.57
2023-06-15T20:37:20.359Z,5.65
2023-06-15T20:40:26.147Z,5.80
2023-06-15T20:43:29.677Z,5.30
2023-06-15T20:46:34.336Z,5.37
2023-06-15T20:49:37.745Z,5.55
2023-06-15T20:52:43.219Z,6.20
2023-06-15T20:55:46.927Z,6.90
2023-06-15T20:58:53.949Z,6.00
2023-06-15T21:01:57.404Z,6.17
2023-06-15T21:05:10.310Z,6.12
2023-06-15T21:08:13.767Z,5.50
2023-06-15T21:11:19.693Z,4.87
2023-06-15T21:14:23.214Z,4.40
2023-06-15T21:17:29.121Z,4.50
2023-06-15T21:20:32.622Z,4.35
2023-06-15T21:23:38.476Z,4.45
2023-06-15T21:26:43.688Z,4.30
2023-06-15T21:29:47.575Z,4.60
2023-06-15T21:32:53.237Z,4.50
2023-06-15T21:35:57.347Z,4.87
2023-06-15T21:39:00.716Z,4.70
2023-06-15T21:42:07.136Z,4.60
2023-06-15T21:45:11.025Z,4.50
2023-06-15T21:48:15.010Z,4.33
2023-06-15T21:51:18.566Z,4.18
2023-06-15T21:54:22.224Z,4.70
2023-06-15T21:57:27.128Z,4.65
2023-06-15T22:00:30.798Z,5.07
2023-06-15T22:03:34.486Z,5.30
2023-06-15T22:06:39.677Z,4.82
2023-06-15T22:09:43.721Z,5.50
2023-06-15T22:12:48.470Z,5.70
2023-06-15T22:15:51.847Z,5.33
2023-06-15T22:18:55.411Z,5.50
2023-06-15T22:21:58.942Z,5.35
2023-06-15T22:25:02.170Z,5.47
2023-06-15T22:28:05.527Z,5.18
2023-06-15T22:31:08.877Z,5.33
2023-06-15T22:34:12.241Z,5.28
2023-06-15T22:37:16.623Z,5.25
2023-06-15T22:40:20.513Z,5.18
2023-06-15T22:43:27.028Z,5.60
2023-06-15T22:46:30.583Z,5.57
2023-06-15T22:49:35.620Z,5.63
2023-06-15T22:52:42.684Z,5.10
2023-06-15T22:55:46.269Z,5.30
2023-06-15T22:58:49.762Z,5.05
2023-06-15T23:01:54.439Z,5.47
2023-06-15T23:04:57.925Z,5.85
2023-06-15T23:08:01.444Z,6.05
2023-06-15T23:11:05.055Z,5.65
2023-06-15T23:14:09.724Z,6.00
2023-06-15T23:17:13.124Z,6.43
2023-06-15T23:20:19.166Z,6.00
2023-06-15T23:23:26.401Z,6.82
2023-06-15T23:26:31.077Z,6.15
2023-06-15T23:29:36.535Z,6.03
2023-06-15T23:32:39.927Z,6.73
2023-06-15T23:35:43.614Z,6.50
2023-06-15T23:38:46.689Z,6.55
2023-06-15T23:41:50.082Z,6.18
2023-06-15T23:45:03.629Z,6.47
2023-06-15T23:48:07.775Z,6.33
2023-06-15T23:51:11.313Z,6.63
2023-06-15T23:54:14.723Z,6.78
2023-06-15T23:57:18.136Z,7.18
